Time;durP1;ratioP1;P1;durP2;ratioP2;P2;SDS_P1;SDS_P2;PMS_P1;PMS_P2;Temp;Humidity;BMP_temperature;BMP_pressure;BME280_temperature;BME280_humidity;BME280_pressure;Samples;Min_cycle;Max_cycle;Signal;HPM_P1;HPM_P2
2022/11/01 00:01:51;;;;;;;29.45;13.82;;;;;;;12.92;100.00;101628.50;5090161;28;20382;-72
2022/11/01 00:04:22;;;;;;;36.45;15.63;;;;;;;12.93;100.00;101632.84;5079904;28;20023;-73
2022/11/01 00:06:48;;;;;;;37.53;15.82;;;;;;;12.91;100.00;101633.06;5083157;28;20127;-72
2022/11/01 00:09:13;;;;;;;37.80;17.00;;;;;;;12.94;100.00;101629.13;5105772;28;20028;-73
2022/11/01 00:11:39;;;;;;;38.35;17.85;;;;;;;12.95;100.00;101628.09;5095122;28;20085;-71
2022/11/01 00:14:05;;;;;;;38.30;16.00;;;;;;;12.86;100.00;101611.19;5089077;28;20503;-72
2022/11/01 00:16:31;;;;;;;37.28;15.25;;;;;;;12.96;100.00;101620.84;5065132;28;20039;-72
2022/11/01 00:18:56;;;;;;;36.85;15.05;;;;;;;12.94;100.00;101611.03;5099842;28;20028;-71
2022/11/01 00:21:22;;;;;;;33.10;14.95;;;;;;;12.92;100.00;101606.88;5088513;28;20065;-71
2022/11/01 00:23:47;;;;;;;36.35;15.38;;;;;;;12.86;100.00;101604.97;5094449;28;20086;-72
2022/11/01 00:26:17;;;;;;;33.95;14.52;;;;;;;12.85;100.00;101608.69;5067706;28;20060;-72
2022/11/01 00:28:43;;;;;;;28.10;13.57;;;;;;;12.77;100.00;101601.53;5066685;28;20023;-72
2022/11/01 00:31:09;;;;;;;28.98;14.27;;;;;;;12.76;100.00;101604.44;5080058;28;20042;-72
2022/11/01 00:33:36;;;;;;;25.17;13.27;;;;;;;12.54;100.00;101566.66;5089782;28;20092;-72
2022/11/01 00:36:02;;;;;;;28.60;13.57;;;;;;;12.67;100.00;101588.38;5095321;28;20102;-72
2022/11/01 00:38:27;;;;;;;26.25;12.90;;;;;;;12.65;100.00;101593.16;5103610;28;20107;-71
2022/11/01 00:40:54;;;;;;;29.63;13.48;;;;;;;12.64;100.00;101596.03;5084456;28;20034;-72
2022/11/01 00:43:19;;;;;;;27.35;13.15;;;;;;;12.61;100.00;101586.44;5096818;28;20036;-72
2022/11/01 00:45:45;;;;;;;21.48;12.20;;;;;;;12.44;100.00;101558.03;5072638;28;20466;-71
2022/11/01 00:48:11;;;;;;;30.73;12.90;;;;;;;12.54;100.00;101584.72;5078442;28;20036;-71
2022/11/01 00:50:38;;;;;;;29.73;13.30;;;;;;;12.50;100.00;101586.13;5067379;28;20119;-71
2022/11/01 00:53:03;;;;;;;31.90;13.27;;;;;;;12.45;100.00;101582.16;5103672;28;20050;-71
2022/11/01 00:55:28;;;;;;;30.38;12.95;;;;;;;12.40;100.00;101575.66;5076914;28;20044;-71
2022/11/01 00:57:54;;;;;;;31.15;13.40;;;;;;;12.20;100.00;101551.16;5107522;28;20040;-70
2022/11/01 01:00:20;;;;;;;24.58;12.18;;;;;;;12.31;100.00;101566.84;5079607;28;20031;-70
2022/11/01 01:02:45;;;;;;;30.67;12.48;;;;;;;12.28;100.00;101569.91;5102814;28;20509;-71
2022/11/01 01:05:10;;;;;;;32.45;13.20;;;;;;;12.25;100.00;101574.84;5108805;28;20066;-71
2022/11/01 01:07:59;;;;;;;28.85;11.93;;;;;;;12.19;100.00;101563.00;5079861;28;20024;-70
2022/11/01 01:10:24;;;;;;;25.25;11.95;;;;;;;12.08;100.00;101553.50;5048081;28;20043;-72
2022/11/01 01:12:50;;;;;;;30.83;13.27;;;;;;;11.95;100.00;101529.09;5046123;28;20037;-71
2022/11/01 01:15:15;;;;;;;34.08;12.35;;;;;;;12.08;100.00;101547.28;5024810;28;20045;-71
2022/11/01 01:17:41;;;;;;;30.38;11.35;;;;;;;12.02;100.00;101557.00;5035090;28;20049;-71
2022/11/01 01:20:07;;;;;;;30.00;12.63;;;;;;;11.93;100.00;101547.34;5007255;28;20045;-71
2022/11/01 01:22:32;;;;;;;27.35;11.70;;;;;;;11.90;100.00;101553.13;5063852;28;20108;-72
2022/11/01 01:24:58;;;;;;;28.95;12.30;;;;;;;11.84;100.00;101549.31;5063876;28;20124;-72
2022/11/01 01:27:23;;;;;;;27.92;11.13;;;;;;;11.80;100.00;101547.16;5056793;28;20029;-72
2022/11/01 01:29:53;;;;;;;23.52;11.75;;;;;;;11.73;100.00;101539.81;5051734;28;20055;-72
2022/11/01 01:32:23;;;;;;;26.23;12.05;;;;;;;11.73;100.00;101545.22;5058191;28;20098;-71
2022/11/01 01:34:49;;;;;;;25.55;10.77;;;;;;;11.67;100.00;101534.34;5061408;28;20025;-71
2022/11/01 01:37:15;;;;;;;27.55;12.50;;;;;;;11.62;100.00;101540.31;5065797;28;20046;-71
2022/11/01 01:39:41;;;;;;;37.75;14.38;;;;;;;11.56;100.00;101534.84;5038314;28;20115;-71
2022/11/01 01:42:17;;;;;;;59.03;16.40;;;;;;;11.15;100.00;101502.97;5083863;28;20036;-71
2022/11/01 01:44:44;;;;;;;118.95;17.83;;;;;;;11.14;100.00;101539.00;5085683;28;20031;-70
2022/11/01 01:47:14;;;;;;;30.42;14.23;;;;;;;11.13;100.00;101523.88;5100998;28;20028;-71
2022/11/01 01:49:40;;;;;;;28.17;13.25;;;;;;;11.20;100.00;101524.81;5092419;28;20038;-71
2022/11/01 01:52:06;;;;;;;21.38;11.25;;;;;;;11.13;100.00;101510.41;5080547;28;20035;-71
2022/11/01 01:54:31;;;;;;;32.30;13.30;;;;;;;11.17;100.00;101528.69;5106390;28;20040;-71
2022/11/01 01:56:57;;;;;;;29.83;12.38;;;;;;;11.16;100.00;101518.97;5087357;28;20131;-72
2022/11/01 01:59:24;;;;;;;33.50;13.20;;;;;;;11.19;100.00;101504.25;5080677;28;20035;-70
2022/11/01 02:01:50;;;;;;;25.83;11.25;;;;;;;10.96;100.00;101456.72;5092391;28;20027;-71
2022/11/01 02:04:48;;;;;;;28.77;11.15;;;;;;;11.17;100.00;101495.53;5099869;28;20036;-72
2022/11/01 02:07:14;;;;;;;23.45;10.32;;;;;;;11.08;100.00;101488.56;5057379;28;20403;-71
2022/11/01 02:09:42;;;;;;;30.48;12.15;;;;;;;11.05;100.00;101489.78;5067528;28;20127;-71
2022/11/01 02:12:10;;;;;;;25.58;12.35;;;;;;;11.10;100.00;101484.69;5039113;28;20042;-71
2022/11/01 02:14:36;;;;;;;33.58;12.80;;;;;;;11.03;100.00;101494.53;5061630;28;20032;-71
2022/11/01 02:17:17;;;;;;;26.83;12.40;;;;;;;10.99;100.00;101490.50;5013620;28;20044;-71
2022/11/01 02:20:31;;;;;;;26.92;12.05;;;;;;;11.03;100.00;101489.13;5034866;28;20116;-71
2022/11/01 02:23:33;;;;;;;25.65;11.52;;;;;;;11.03;100.00;101489.13;5037538;28;20051;-71
2022/11/01 02:26:18;;;;;;;27.70;10.40;;;;;;;10.87;100.00;101475.84;5050537;28;20412;-71
2022/11/01 02:28:58;;;;;;;27.52;11.15;;;;;;;10.70;100.00;101473.31;5060524;28;20533;-71
2022/11/01 02:31:31;;;;;;;29.75;12.00;;;;;;;10.72;100.00;101475.81;5055923;28;20036;-72
2022/11/01 02:34:03;;;;;;;36.27;13.60;;;;;;;10.62;100.00;101459.94;5050604;28;20035;-71
2022/11/01 02:36:43;;;;;;;23.98;11.40;;;;;;;10.73;100.00;101458.66;5058328;28;20491;-71
2022/11/01 02:39:19;;;;;;;19.55;10.45;;;;;;;10.86;100.00;101466.09;5096883;28;20048;-71
2022/11/01 02:41:56;;;;;;;26.25;10.95;;;;;;;10.92;100.00;101470.72;5091613;28;20027;-71
2022/11/01 02:44:26;;;;;;;26.98;11.05;;;;;;;10.97;100.00;101457.56;5081813;28;20034;-71
2022/11/01 02:47:00;;;;;;;29.90;11.52;;;;;;;11.12;100.00;101468.31;5084201;28;20028;-71
2022/11/01 02:49:37;;;;;;;23.00;10.57;;;;;;;10.93;100.00;101424.78;5090444;28;20438;-72
2022/11/01 02:52:05;;;;;;;29.58;10.45;;;;;;;11.29;100.00;101462.56;5080570;28;20028;-71
2022/11/01 02:55:26;;;;;;;31.08;11.30;;;;;;;11.42;100.00;101461.91;5087343;28;20032;-71
2022/11/01 02:57:51;;;;;;;24.23;10.52;;;;;;;11.45;100.00;101463.34;5030735;28;20559;-72
2022/11/01 03:00:28;;;;;;;29.63;10.30;;;;;;;11.52;100.00;101462.44;5065477;28;20249;-72
2022/11/01 03:03:05;;;;;;;31.13;10.88;;;;;;;11.61;100.00;101462.31;5063509;28;20437;-71
2022/11/01 03:05:43;;;;;;;26.55;9.75;;;;;;;11.56;100.00;101460.19;5055350;28;20059;-71
2022/11/01 03:08:13;;;;;;;29.58;10.82;;;;;;;11.69;100.00;101446.88;5040729;28;20507;-71
2022/11/01 03:10:57;;;;;;;27.65;9.65;;;;;;;11.63;100.00;101452.19;5061850;28;20106;-72
2022/11/01 03:13:53;;;;;;;29.13;9.53;;;;;;;11.62;100.00;101445.09;5067430;28;20033;-72
2022/11/01 03:16:22;;;;;;;30.25;9.20;;;;;;;11.68;100.00;101434.38;5044645;28;20020;-73
2022/11/01 03:19:22;;;;;;;22.50;9.90;;;;;;;11.84;100.00;101433.34;5060664;28;20037;-71
2022/11/01 03:21:58;;;;;;;27.17;9.23;;;;;;;11.83;100.00;101431.66;5068667;28;20487;-72
2022/11/01 03:24:30;;;;;;;30.98;9.15;;;;;;;11.89;100.00;101435.50;5057588;28;20111;-72
2022/11/01 03:27:09;;;;;;;31.30;9.63;;;;;;;11.86;100.00;101435.88;5060674;28;20128;-72
2022/11/01 03:29:36;;;;;;;28.60;8.52;;;;;;;11.96;100.00;101431.81;5068474;28;20525;-72
2022/11/01 03:32:04;;;;;;;21.80;8.32;;;;;;;11.88;100.00;101401.44;5039318;28;20032;-72
2022/11/01 03:34:32;;;;;;;22.85;8.30;;;;;;;12.05;100.00;101412.78;5064632;28;20029;-72
2022/11/01 03:37:03;;;;;;;17.73;7.93;;;;;;;12.18;100.00;101429.09;5063598;28;20032;-71
2022/11/01 03:39:35;;;;;;;22.45;8.50;;;;;;;12.06;100.00;101409.09;5054720;28;20040;-72
2022/11/01 03:42:05;;;;;;;15.75;7.97;;;;;;;12.04;100.00;101394.94;5039280;28;20024;-71
2022/11/01 03:44:39;;;;;;;21.77;8.32;;;;;;;12.20;100.00;101405.47;5063198;28;20131;-71
2022/11/01 03:47:06;;;;;;;23.63;7.97;;;;;;;12.13;100.00;101397.31;5063984;28;20050;-71
2022/11/01 03:49:31;;;;;;;17.05;7.75;;;;;;;12.23;100.00;101399.69;5054289;28;20041;-72
2022/11/01 03:51:57;;;;;;;21.23;7.53;;;;;;;12.26;100.00;101401.16;5083490;28;20099;-71
2022/11/01 03:54:22;;;;;;;18.83;7.75;;;;;;;12.22;100.00;101393.44;5056810;28;20064;-71
2022/11/01 03:56:47;;;;;;;20.85;7.93;;;;;;;12.23;100.00;101396.97;5072392;28;20051;-71
2022/11/01 03:59:13;;;;;;;20.17;8.00;;;;;;;12.38;100.00;101404.97;5070277;28;20442;-71
2022/11/01 04:01:38;;;;;;;22.60;8.20;;;;;;;12.44;100.00;101396.09;5094981;28;20039;-72
2022/11/01 04:04:04;;;;;;;22.92;8.50;;;;;;;12.51;100.00;101396.13;5107827;28;20110;-73
2022/11/01 04:06:30;;;;;;;26.38;8.70;;;;;;;12.50;100.00;101389.06;5081051;28;20092;-72
2022/11/01 04:08:55;;;;;;;21.63;7.85;;;;;;;12.57;100.00;101392.66;5100748;28;20035;-72
2022/11/01 04:11:20;;;;;;;19.45;6.43;;;;;;;12.55;100.00;101395.56;5106466;28;20039;-72
2022/11/01 04:13:46;;;;;;;17.15;5.50;;;;;;;12.56;100.00;101391.00;5060241;28;20043;-73
2022/11/01 04:21:40;;;;;;;11.65;3.58;;;;;;;12.55;100.00;101395.56;5094867;28;20084;-72
2022/11/01 04:24:07;;;;;;;13.40;3.80;;;;;;;12.52;100.00;101392.44;5089305;28;20119;-71
2022/11/01 04:26:32;;;;;;;12.55;4.03;;;;;;;12.53;100.00;101392.22;5099353;28;20032;-71
2022/11/01 04:29:01;;;;;;;12.00;3.58;;;;;;;12.54;100.00;101380.38;5061988;28;20159;-71
2022/11/01 04:31:35;;;;;;;10.15;3.28;;;;;;;12.48;100.00;101370.38;5013413;28;20050;-72
2022/11/01 04:34:02;;;;;;;9.23;2.90;;;;;;;12.51;100.00;101378.06;5045259;28;20520;-71
2022/11/01 04:36:28;;;;;;;7.60;2.42;;;;;;;12.49;100.00;101377.44;5019550;28;20048;-71
2022/11/01 04:38:55;;;;;;;10.25;2.63;;;;;;;12.23;100.00;101330.34;5025273;28;20064;-71
2022/11/01 04:41:23;;;;;;;7.97;2.20;;;;;;;12.15;100.00;101362.03;5030879;28;20102;-71
2022/11/01 04:43:51;;;;;;;8.70;2.75;;;;;;;12.41;100.00;101375.72;5036509;28;20029;-71
2022/11/01 04:46:16;;;;;;;11.35;3.10;;;;;;;12.49;100.00;101369.34;5030686;28;20051;-71
2022/11/01 04:48:41;;;;;;;10.07;3.15;;;;;;;12.53;100.00;101377.88;5025300;28;20104;-71
2022/11/01 04:51:07;;;;;;;13.10;3.78;;;;;;;12.52;100.00;101371.66;5023397;28;20041;-71
2022/11/01 04:53:33;;;;;;;13.88;3.83;;;;;;;12.55;100.00;101370.41;5048781;28;20033;-71
2022/11/01 04:56:02;;;;;;;11.63;3.35;;;;;;;12.48;100.00;101345.25;5036152;28;20488;-72
2022/11/01 04:58:28;;;;;;;11.70;2.90;;;;;;;12.56;100.00;101362.13;5045381;28;20159;-72
2022/11/01 05:00:54;;;;;;;12.43;3.28;;;;;;;12.58;100.00;101360.06;5026794;28;20112;-70
2022/11/01 05:03:19;;;;;;;10.00;2.75;;;;;;;12.62;100.00;101355.94;5094316;28;20409;-71
2022/11/01 05:05:44;;;;;;;12.38;3.00;;;;;;;12.54;100.00;101352.56;5076707;28;20043;-71
2022/11/01 05:08:12;;;;;;;9.25;2.70;;;;;;;12.46;100.00;101329.25;5100808;28;20024;-71
2022/11/01 05:10:42;;;;;;;13.95;3.20;;;;;;;12.38;100.00;101326.69;5107241;28;20126;-70
2022/11/01 05:13:08;;;;;;;6.35;2.55;;;;;;;12.07;100.00;101295.59;5107627;28;20040;-69
2022/11/01 05:15:34;;;;;;;8.02;2.20;;;;;;;12.22;100.00;101317.91;5099107;28;20031;-71
2022/11/01 05:18:00;;;;;;;8.05;1.80;;;;;;;12.10;100.00;101305.97;5093256;28;20032;-70
2022/11/01 05:20:27;;;;;;;6.05;1.70;;;;;;;12.26;100.00;101302.16;5083536;28;20065;-72
2022/11/01 05:23:00;;;;;;;7.13;2.10;;;;;;;12.38;100.00;101303.28;5086029;28;20487;-72
2022/11/01 05:25:27;;;;;;;8.38;2.30;;;;;;;12.16;100.00;101274.69;5091522;28;20044;-71
2022/11/01 05:28:00;;;;;;;8.80;2.40;;;;;;;12.29;100.00;101292.84;5097859;28;20016;-71
2022/11/01 05:30:26;;;;;;;7.47;2.10;;;;;;;12.24;100.00;101274.53;5089762;28;20024;-72
2022/11/01 05:33:01;;;;;;;6.63;1.73;;;;;;;12.21;100.00;101269.53;5069620;28;20054;-70
2022/11/01 05:35:28;;;;;;;5.53;1.95;;;;;;;12.50;100.00;101279.25;5081184;28;20463;-72
2022/11/01 05:37:54;;;;;;;8.35;2.05;;;;;;;12.38;100.00;101267.34;5111060;28;20506;-71
2022/11/01 05:40:19;;;;;;;10.00;2.13;;;;;;;12.37;100.00;101268.38;5081847;28;20053;-73
2022/11/01 05:42:45;;;;;;;6.80;2.03;;;;;;;12.35;100.00;101281.22;5069769;28;20451;-71
2022/11/01 05:45:11;;;;;;;16.80;7.97;;;;;;;12.52;100.00;101284.44;5107152;28;20046;-72
2022/11/01 05:47:39;;;;;;;6.85;2.20;;;;;;;12.31;100.00;101279.97;5079622;28;20028;-71
2022/11/01 05:50:08;;;;;;;8.05;2.30;;;;;;;12.29;100.00;101265.84;5079748;28;20383;-72
2022/11/01 05:52:33;;;;;;;12.05;2.38;;;;;;;12.17;100.00;101258.28;5088737;28;20028;-72
2022/11/01 05:54:59;;;;;;;8.18;2.63;;;;;;;12.31;100.00;101250.28;5105528;28;20043;-71
2022/11/01 05:57:25;;;;;;;11.38;2.63;;;;;;;12.11;100.00;101213.22;5098974;28;20510;-71
2022/11/01 05:59:50;;;;;;;6.47;3.08;;;;;;;12.20;100.00;101203.13;5075531;28;20032;-72
2022/11/01 06:02:15;;;;;;;8.90;2.67;;;;;;;12.26;100.00;101201.50;5081365;28;20111;-72
2022/11/01 06:04:48;;;;;;;7.47;2.55;;;;;;;12.39;100.00;101223.13;5070339;28;20055;-72
2022/11/01 06:07:14;;;;;;;7.13;2.50;;;;;;;12.32;100.00;101198.00;5089075;28;20481;-72
2022/11/01 06:09:39;;;;;;;7.97;2.60;;;;;;;12.29;100.00;101214.59;5078884;28;20024;-72
2022/11/01 06:12:05;;;;;;;9.50;2.40;;;;;;;12.28;100.00;101210.19;5074869;28;20115;-72
2022/11/01 06:14:30;;;;;;;6.38;2.10;;;;;;;12.06;100.00;101213.00;5083039;28;20169;-72
2022/11/01 06:16:56;;;;;;;9.35;1.95;;;;;;;12.20;100.00;101209.34;5068076;28;20039;-72
2022/11/01 06:19:21;;;;;;;5.53;1.92;;;;;;;12.28;100.00;101210.19;5107942;28;20405;-72
2022/11/01 06:21:46;;;;;;;5.45;1.90;;;;;;;12.20;100.00;101205.81;5096951;28;20454;-73
2022/11/01 06:24:12;;;;;;;10.77;2.03;;;;;;;12.19;100.00;101207.69;5090770;28;20109;-73
2022/11/01 06:26:37;;;;;;;9.10;1.90;;;;;;;12.32;100.00;101206.09;5066803;28;20046;-73
2022/11/01 06:29:03;;;;;;;8.90;1.90;;;;;;;12.17;100.00;101181.94;5083652;28;20179;-72
2022/11/01 06:31:29;;;;;;;9.68;2.10;;;;;;;12.15;100.00;101174.06;5074013;28;20035;-72
2022/11/01 06:33:55;;;;;;;13.18;1.80;;;;;;;12.22;100.00;101207.28;5078519;28;20324;-71
2022/11/01 06:36:21;;;;;;;5.88;1.60;;;;;;;12.17;100.00;101200.81;5089534;28;20039;-73
2022/11/01 06:38:47;;;;;;;9.75;1.80;;;;;;;12.09;100.00;101177.53;5102822;28;20102;-72
2022/11/01 06:41:13;;;;;;;8.63;1.90;;;;;;;11.91;100.00;101169.97;5082209;28;20463;-71
2022/11/01 06:43:38;;;;;;;4.90;1.50;;;;;;;12.05;100.00;101188.91;5091879;28;20037;-70
2022/11/01 06:46:03;;;;;;;5.68;1.40;;;;;;;12.06;100.00;101188.72;5078431;28;20035;-70
2022/11/01 06:48:29;;;;;;;8.20;2.03;;;;;;;12.08;100.00;101175.03;5106180;28;20039;-71
2022/11/01 06:50:54;;;;;;;9.48;1.75;;;;;;;11.98;100.00;101165.44;5052286;28;20023;-71
2022/11/01 06:53:23;;;;;;;7.15;1.80;;;;;;;12.21;100.00;101172.41;5098907;28;20035;-72
2022/11/01 06:55:50;;;;;;;4.90;1.50;;;;;;;12.30;100.00;101168.50;5091499;28;20051;-71
2022/11/01 06:58:15;;;;;;;7.35;1.63;;;;;;;12.19;100.00;101158.28;5079900;28;20047;-73
2022/11/01 07:00:40;;;;;;;9.32;1.83;;;;;;;12.32;100.00;101161.03;5085810;28;20089;-72
2022/11/01 07:03:09;;;;;;;8.65;2.00;;;;;;;12.45;100.00;101158.38;5105064;28;20039;-71
2022/11/01 07:05:36;;;;;;;6.82;1.73;;;;;;;12.42;100.00;101160.66;5096817;28;20085;-72
2022/11/01 07:08:03;;;;;;;6.10;1.50;;;;;;;12.11;100.00;101153.88;5091165;28;20359;-72
2022/11/01 07:10:30;;;;;;;8.95;1.70;;;;;;;12.39;100.00;101139.47;5081519;28;20083;-69
2022/11/01 07:12:58;;;;;;;8.85;1.85;;;;;;;12.40;100.00;101141.13;5083818;28;20040;-73
2022/11/01 07:15:23;;;;;;;5.57;1.67;;;;;;;12.36;100.00;101147.97;5089072;28;20024;-73
2022/11/01 07:17:48;;;;;;;4.57;1.45;;;;;;;12.48;100.00;101137.41;5044533;28;20028;-72
2022/11/01 07:20:14;;;;;;;8.25;1.95;;;;;;;12.27;100.00;101103.31;5090016;28;20040;-71
2022/11/01 07:22:39;;;;;;;9.02;2.00;;;;;;;12.44;100.00;101143.22;5100946;28;20082;-73
2022/11/01 07:25:05;;;;;;;10.45;1.98;;;;;;;12.49;100.00;101144.50;5048974;28;20028;-71
2022/11/01 07:27:34;;;;;;;9.95;2.20;;;;;;;12.46;100.00;101140.31;5089968;28;20055;-73
2022/11/01 07:29:59;;;;;;;7.07;1.83;;;;;;;12.60;100.00;101143.88;5077555;28;20031;-74
2022/11/01 07:32:25;;;;;;;9.40;1.90;;;;;;;12.45;100.00;101141.38;5106046;28;20036;-71
2022/11/01 07:34:50;;;;;;;5.70;1.92;;;;;;;12.56;100.00;101140.75;5084011;28;20569;-70
2022/11/01 07:37:16;;;;;;;7.40;2.22;;;;;;;12.52;100.00;101130.59;5063831;28;20046;-70
2022/11/01 07:39:41;;;;;;;5.65;2.00;;;;;;;12.57;100.00;101136.19;5090568;28;20070;-72
2022/11/01 07:42:06;;;;;;;10.70;2.40;;;;;;;12.73;100.00;101134.97;5095981;28;20038;-71
2022/11/01 07:44:32;;;;;;;8.00;2.25;;;;;;;12.65;100.00;101128.75;5104904;28;20028;-72
2022/11/01 07:46:57;;;;;;;5.47;2.22;;;;;;;12.84;100.00;101126.25;5084828;28;20431;-73
2022/11/01 07:49:23;;;;;;;5.85;2.30;;;;;;;12.72;100.00;101120.66;5097652;28;20028;-72
2022/11/01 07:51:48;;;;;;;6.10;2.40;;;;;;;12.73;100.00;101118.78;5108672;28;20031;-72
2022/11/01 07:54:14;;;;;;;5.80;2.17;;;;;;;12.64;100.00;101123.53;5078336;28;20044;-72
2022/11/01 07:56:40;;;;;;;4.55;2.50;;;;;;;12.75;100.00;101112.16;5082177;28;20520;-72
2022/11/01 07:59:06;;;;;;;6.72;2.42;;;;;;;12.76;100.00;101112.97;5081881;28;20036;-72
2022/11/01 08:01:33;;;;;;;8.18;2.33;;;;;;;12.94;100.00;101102.38;5107445;28;20027;-72
2022/11/01 08:03:58;;;;;;;7.90;2.25;;;;;;;12.84;100.00;101104.66;5094778;28;20123;-72
2022/11/01 08:06:23;;;;;;;9.80;2.35;;;;;;;12.90;100.00;101106.53;5087468;28;20119;-72
2022/11/01 08:08:49;;;;;;;4.68;2.38;;;;;;;12.70;100.00;101087.63;5100917;28;20031;-72
2022/11/01 08:11:14;;;;;;;5.30;2.30;;;;;;;12.74;100.00;101078.06;5098176;28;20094;-73
2022/11/01 08:13:39;;;;;;;6.05;2.30;;;;;;;12.91;100.00;101075.78;5089262;28;20032;-73
2022/11/01 08:16:05;;;;;;;7.93;2.53;;;;;;;13.11;100.00;101073.94;5043462;28;20451;-73
2022/11/01 08:18:34;;;;;;;6.68;2.60;;;;;;;13.33;100.00;101081.81;5104431;28;20042;-72
2022/11/01 08:20:59;;;;;;;6.88;2.50;;;;;;;13.40;100.00;101079.94;5102488;28;20401;-73
2022/11/01 08:23:25;;;;;;;6.50;2.63;;;;;;;13.45;100.00;101071.22;5096961;28;20039;-73
2022/11/01 08:25:50;;;;;;;6.32;2.90;;;;;;;13.45;100.00;101080.13;5089927;28;20036;-73
2022/11/01 08:28:18;;;;;;;6.07;2.90;;;;;;;13.41;100.00;101070.81;5078168;28;20023;-71
2022/11/01 08:30:46;;;;;;;8.75;3.58;;;;;;;13.47;100.00;101063.69;5084363;28;20047;-72
2022/11/01 08:33:11;;;;;;;8.90;4.25;;;;;;;13.29;100.00;101045.44;5074449;28;20485;-73
2022/11/01 08:35:37;;;;;;;6.97;3.70;;;;;;;13.45;100.00;101058.50;5072707;28;20502;-72
2022/11/01 08:38:03;;;;;;;5.60;3.33;;;;;;;13.03;100.00;101003.88;5094374;28;20028;-73
2022/11/01 08:40:29;;;;;;;8.45;3.70;;;;;;;13.43;100.00;101030.84;5086176;28;20185;-72
2022/11/01 08:42:56;;;;;;;9.73;4.38;;;;;;;13.48;100.00;101022.94;5083540;28;20023;-73
2022/11/01 08:45:21;;;;;;;6.07;3.97;;;;;;;13.52;100.00;101024.19;5097255;28;20043;-73
2022/11/01 08:47:46;;;;;;;8.40;3.67;;;;;;;13.63;100.00;101034.31;5107615;28;20039;-72
2022/11/01 08:50:14;;;;;;;9.10;4.57;;;;;;;13.78;100.00;101025.94;5077736;28;20073;-73
2022/11/01 08:52:41;;;;;;;7.10;4.03;;;;;;;13.78;100.00;101017.84;5103095;28;20106;-72
2022/11/01 08:55:07;;;;;;;7.85;4.53;;;;;;;13.78;100.00;101000.78;5084717;28;20069;-73
2022/11/01 08:57:32;;;;;;;9.43;4.80;;;;;;;13.84;100.00;100992.63;5095591;28;20048;-72
2022/11/01 08:59:58;;;;;;;7.55;4.70;;;;;;;13.79;100.00;101014.09;5089527;28;20034;-72
2022/11/01 09:02:24;;;;;;;9.88;4.75;;;;;;;13.90;100.00;100990.09;5096871;28;20032;-72
2022/11/01 09:04:49;;;;;;;9.93;4.97;;;;;;;14.16;100.00;101011.59;5083177;28;20038;-72
2022/11/01 09:07:15;;;;;;;10.18;4.40;;;;;;;14.14;100.00;101010.13;5104187;28;20073;-72
2022/11/01 09:09:40;;;;;;;7.13;4.43;;;;;;;14.27;100.00;101004.63;5059611;28;20394;-72
2022/11/01 09:12:06;;;;;;;7.30;4.50;;;;;;;14.44;100.00;101008.50;5107692;28;20035;-72
2022/11/01 09:14:32;;;;;;;11.20;3.88;;;;;;;14.60;100.00;101006.31;5071803;28;20101;-72
2022/11/01 09:16:57;;;;;;;11.88;4.30;;;;;;;14.47;100.00;101001.78;5083147;28;20470;-72
2022/11/01 09:19:23;;;;;;;10.40;3.88;;;;;;;14.48;100.00;101004.28;5090870;28;20089;-73
2022/11/01 09:21:48;;;;;;;8.75;3.92;;;;;;;14.56;100.00;101009.47;5089434;28;20043;-72
2022/11/01 09:24:15;;;;;;;8.73;4.18;;;;;;;14.63;100.00;101009.41;5097426;28;20561;-72
2022/11/01 09:26:41;;;;;;;5.05;3.70;;;;;;;14.57;100.00;100994.06;5088397;28;20036;-74
2022/11/01 09:29:06;;;;;;;6.82;3.80;;;;;;;14.53;100.00;101003.66;5106993;28;20034;-72
2022/11/01 09:31:32;;;;;;;10.10;3.72;;;;;;;14.68;100.00;101001.47;5080997;28;20039;-72
2022/11/01 09:33:59;;;;;;;5.60;3.55;;;;;;;14.71;100.00;101003.72;5111071;28;20051;-72
2022/11/01 09:36:26;;;;;;;5.32;3.80;;;;;;;14.74;100.00;100999.75;5100585;28;20028;-72
2022/11/01 09:39:08;;;;;;;9.98;4.28;;;;;;;14.75;100.00;101010.34;5102520;28;20027;-73
2022/11/01 09:41:44;;;;;;;5.85;3.85;;;;;;;14.78;100.00;100996.38;5075251;28;20035;-70
2022/11/01 09:44:15;;;;;;;7.35;3.55;;;;;;;14.78;100.00;100993.66;5097157;28;20559;-72
2022/11/01 09:47:02;;;;;;;6.47;4.10;;;;;;;14.77;100.00;100988.47;5088074;28;20059;-72
2022/11/01 09:49:37;;;;;;;7.30;3.90;;;;;;;14.65;100.00;100960.44;5108891;28;20055;-72
2022/11/01 09:52:04;;;;;;;7.00;4.22;;;;;;;14.84;100.00;100985.72;5079054;28;20027;-72
2022/11/01 09:54:30;;;;;;;7.25;4.20;;;;;;;14.78;100.00;100984.72;5089401;28;20127;-73
2022/11/01 09:57:22;;;;;;;6.95;4.18;;;;;;;14.73;100.00;100989.94;5085865;28;20043;-73
2022/11/01 10:00:12;;;;;;;8.50;4.45;;;;;;;14.71;100.00;100982.06;5079156;28;20085;-72
2022/11/01 10:03:15;;;;;;;7.18;4.43;;;;;;;14.78;100.00;100987.41;5088101;28;20371;-73
2022/11/01 10:05:55;;;;;;;8.63;4.10;;;;;;;14.87;100.00;100983.38;5092098;28;20106;-72
2022/11/01 10:08:45;;;;;;;8.27;4.50;;;;;;;14.93;100.00;100976.22;5086544;28;20034;-72
2022/11/01 10:11:16;;;;;;;8.18;4.57;;;;;;;14.91;100.00;100976.44;5087830;28;20031;-73
2022/11/01 10:14:06;;;;;;;6.55;4.45;;;;;;;14.98;100.00;100979.91;5079247;28;20036;-72
2022/11/01 10:16:36;;;;;;;9.27;4.72;;;;;;;14.94;100.00;100981.44;5069540;28;20028;-72
2022/11/01 10:19:01;;;;;;;8.93;4.15;;;;;;;14.97;100.00;100972.84;5084744;28;20028;-72
2022/11/01 10:21:41;;;;;;;9.20;4.90;;;;;;;14.87;100.00;100959.00;5108504;28;20035;-70
2022/11/01 10:24:17;;;;;;;5.35;4.10;;;;;;;14.73;100.00;100963.69;5096852;28;20024;-72
2022/11/01 10:26:45;;;;;;;9.02;4.65;;;;;;;14.74;100.00;100964.53;5087592;28;20549;-72
2022/11/01 10:29:27;;;;;;;7.57;4.20;;;;;;;14.78;100.00;100960.31;5106025;28;20109;-72
2022/11/01 10:31:53;;;;;;;8.00;4.80;;;;;;;14.79;100.00;100956.56;5076607;28;20020;-72
2022/11/01 10:34:26;;;;;;;15.60;5.00;;;;;;;14.85;100.00;100941.31;5063431;28;20051;-72
2022/11/01 10:36:59;;;;;;;5.95;4.47;;;;;;;14.86;100.00;100946.47;5085550;28;20040;-72
2022/11/01 10:39:41;;;;;;;8.13;4.68;;;;;;;14.89;100.00;100951.44;5107675;28;20032;-72
2022/11/01 10:42:15;;;;;;;9.15;4.63;;;;;;;14.85;100.00;100944.00;5096729;28;20054;-73
2022/11/01 10:44:45;;;;;;;8.70;4.80;;;;;;;14.87;100.00;100950.88;5087263;28;20039;-72
2022/11/01 10:47:15;;;;;;;7.93;3.95;;;;;;;14.80;100.00;100933.81;5105511;28;20031;-71
2022/11/01 10:49:48;;;;;;;7.82;4.25;;;;;;;14.85;100.00;100934.00;5078908;28;20024;-72
2022/11/01 10:52:20;;;;;;;11.33;4.57;;;;;;;14.69;100.00;100907.50;5081508;28;20032;-72
2022/11/01 10:54:49;;;;;;;7.75;4.25;;;;;;;14.83;100.00;100936.09;5104781;28;20276;-72
2022/11/01 10:57:43;;;;;;;8.88;4.32;;;;;;;14.88;100.00;100946.28;5083734;28;20104;-72
2022/11/01 11:00:16;;;;;;;6.77;4.13;;;;;;;14.82;100.00;100917.38;5088192;28;20041;-70
2022/11/01 11:02:49;;;;;;;7.18;4.65;;;;;;;14.85;100.00;100931.28;5080747;28;20631;-72
2022/11/01 11:05:15;;;;;;;6.15;3.95;;;;;;;14.88;100.00;100936.25;5079977;28;20035;-71
2022/11/01 11:07:41;;;;;;;7.78;4.50;;;;;;;14.83;100.00;100917.13;5088850;28;20430;-71
2022/11/01 11:10:23;;;;;;;8.10;4.32;;;;;;;14.82;100.00;100910.06;5073481;28;20028;-68
2022/11/01 11:12:52;;;;;;;7.28;4.53;;;;;;;14.88;100.00;100920.00;5080493;28;20024;-68
2022/11/01 11:15:38;;;;;;;10.55;4.40;;;;;;;14.86;100.00;100913.97;5069325;28;20571;-68
2022/11/01 11:18:26;;;;;;;8.80;3.90;;;;;;;14.87;100.00;100906.69;5087029;28;20028;-69
2022/11/01 11:20:57;;;;;;;11.32;4.30;;;;;;;14.87;100.00;100910.22;5028369;28;20570;-67
2022/11/01 11:23:26;;;;;;;6.60;3.95;;;;;;;14.97;100.00;100907.00;5042027;28;20079;-67
2022/11/01 11:25:51;;;;;;;9.63;4.05;;;;;;;14.75;100.00;100868.69;5048931;28;20045;-69
2022/11/01 11:28:25;;;;;;;10.98;4.32;;;;;;;14.94;100.00;100900.13;5031608;28;20511;-67